Flight Track Log - Related Links

Times and Time Zones

All times are in EDT time to prevent confusion due to time zone crossing. See the EJA589 flight status page for this flight to view local times or setup timezone preferences in your user account.

Time Position Orientation Groundspeed Altitude Reporting Facility
EDT Latitude Longitude Course Direction KTS MPH feet Rate Location/Type
Sun 02:01:25 PM 41.3081 -95.9014 321° Northwest 139 160 1,500  Level Minneapolis Center
Sun 02:01:44 PM 41.3194 -95.9139 321° Northwest 154 177 2,200 2,658 Climbing Minneapolis Center
Sun 02:02:44 PM 41.3606 -95.9647 317° Northwest 229 264 5,000 2,000 Climbing Minneapolis Center
Sun 02:03:23 PM 41.3581 -96.0047 265° West 224 258 5,500 3,190 Climbing Minneapolis Center
Sun 02:04:03 PM 41.3264 -96.0853 242° Southwest 290 334 9,200 4,258 Climbing Minneapolis Center
Sun 02:04:25 PM 41.3222 -96.0983 247° West 270 311 9,900 2,857 Climbing Minneapolis Center
Sun 02:05:27 PM 41.2786 -96.2139 243° Southwest 289 333 13,200 2,903 Climbing Minneapolis Center
Sun 02:06:29 PM 41.2436 -96.3211 247° West 305 351 15,900 2,468 Climbing Minneapolis Center
Sun 02:07:31 PM 41.2081 -96.4314 247° West 320 368 18,300 2,468 Climbing Minneapolis Center
Sun 02:08:33 PM 41.1708 -96.5458 247° West 331 381 21,000 2,565 Climbing Minneapolis Center
Sun 02:09:35 PM 41.1333 -96.6625 247° West 341 392 23,600 2,516 Climbing Minneapolis Center
Sun 02:10:37 PM 41.0983 -96.7811 249° West 345 397 26,200 2,419 Climbing Minneapolis Center
Sun 02:11:39 PM 41.0569 -96.9219 249° West 343 395 28,600 1,645 Climbing Minneapolis Center
Sun 02:12:41 PM 41.0194 -97.0497 249° West 362 417 29,600 1,113 Climbing Minneapolis Center
Sun 02:13:43 PM 40.9792 -97.1850 249° West 386 444 30,900 1,355 Climbing Minneapolis Center
Sun 02:14:45 PM 40.9394 -97.3217 249° West 396 456 32,400 1,452 Climbing Minneapolis Center
Sun 02:15:47 PM 40.8967 -97.4611 248° West 398 458 33,900 1,452 Climbing Minneapolis Center
Sun 02:16:49 PM 40.8525 -97.5947 246° West 397 457 35,400 1,403 Climbing Minneapolis Center
Sun 02:17:51 PM 40.8039 -97.7228 243° Southwest 391 450 36,800 1,544 Climbing Minneapolis Center
Sun 02:19:05 PM 40.7369 -97.8950 243° Southwest 377 434 38,900 1,412 Climbing Minneapolis Center
Sun 02:20:07 PM 40.6911 -98.0158 243° Southwest 370 426 40,000 532 Climbing Minneapolis Center
Sun 02:21:09 PM 40.6469 -98.1414 245° Southwest 373 429 40,000  Level Minneapolis Center
Sun 02:22:11 PM 40.5989 -98.2744 245° Southwest 392 451 40,000  Level Minneapolis Center
Sun 02:23:13 PM 40.5489 -98.4142 245° Southwest 410 472 40,000  Level Minneapolis Center
Sun 02:24:16 PM 40.5017 -98.5536 246° West 416 479 40,000  Level Minneapolis Center
Sun 02:25:18 PM 40.4578 -98.6925 247° West 412 474 40,000  Level Minneapolis Center
Sun 02:26:20 PM 40.4153 -98.8308 248° West 408 470 40,000  Level Minneapolis Center
Sun 02:27:22 PM 40.3636 -98.9967 248° West 407 468 40,000  Level Minneapolis Center
Sun 02:28:24 PM 40.3203 -99.1328 247° West 405 466 40,000  Level Minneapolis Center
Sun 02:29:35 PM 40.2639 -99.2942 245° Southwest 403 464 40,000  Level Denver Center
Sun 02:30:37 PM 40.2150 -99.4283 245° Southwest 406 467 40,000  Level Denver Center
Sun 02:31:51 PM 40.1650 -99.5608 244° Southwest 406 467 40,000  Level Denver Center
Sun 02:32:54 PM 40.1058 -99.7200 244° Southwest 406 467 40,000  Level Denver Center
Sun 02:33:56 PM 40.0569 -99.8517 244° Southwest 403 464 40,000  Level Denver Center
Sun 02:34:58 PM 40.0056 -99.9819 243° Southwest 404 465 40,000  Level Denver Center
Sun 02:36:00 PM 39.9464 -100.1389 244° Southwest 401 461 40,000  Level Denver Center
Sun 02:37:02 PM 39.8989 -100.2750 246° West 403 464 40,000  Level Denver Center
Sun 02:38:04 PM 39.8558 -100.4042 247° West 404 465 40,000  Level Denver Center
Sun 02:39:06 PM 39.8025 -100.5500 245° Southwest 401 461 40,000  Level Denver Center
Sun 02:40:08 PM 39.7594 -100.6753 246° West 397 457 40,000  Level Denver Center
Sun 02:41:10 PM 39.7156 -100.8017 246° West 399 459 40,000  Level Denver Center
Sun 02:42:12 PM 39.6639 -100.9489 246° West 399 459 40,000  Level Denver Center
Sun 02:43:14 PM 39.6206 -101.0728 246° West 395 455 40,000  Level Denver Center
Sun 02:44:16 PM 39.5686 -101.2183 245° Southwest 396 456 40,000  Level Denver Center
Sun 02:45:18 PM 39.5244 -101.3436 245° Southwest 398 458 40,000  Level Denver Center
Sun 02:46:20 PM 39.4725 -101.4856 245° Southwest 392 451 40,000  Level Denver Center
Sun 02:47:22 PM 39.4272 -101.6069 244° Southwest 392 451 40,000  Level Denver Center
Sun 02:48:23 PM 39.3883 -101.7081 244° Southwest 392 451 40,000  Level Denver Center
Sun 02:49:26 PM 39.3283 -101.8669 244° Southwest 386 444 40,000  Level Denver Center
Sun 02:50:28 PM 39.2753 -101.9981 242° Southwest 388 447 40,000  Level Denver Center
Sun 02:51:30 PM 39.2264 -102.1164 242° Southwest 392 451 40,000  Level Denver Center
Sun 02:52:32 PM 39.1700 -102.2556 242° Southwest 393 452 40,000  Level Denver Center
Sun 02:53:34 PM 39.1228 -102.3781 244° Southwest 399 459 40,000  Level Denver Center
Sun 02:54:36 PM 39.0689 -102.5219 244° Southwest 400 460 40,000  Level Denver Center
Sun 02:55:38 PM 39.0217 -102.6447 244° Southwest 401 461 40,000  Level Denver Center
Sun 02:56:40 PM 38.9714 -102.7736 243° Southwest 398 458 40,000  Level Denver Center
Sun 02:57:41 PM 38.9289 -102.8806 243° Southwest 399 459 40,000  Level Denver Center
Sun 02:58:44 PM 38.8619 -103.0481 243° Southwest 392 451 40,000  Level Denver Center
Sun 02:59:46 PM 38.8117 -103.1739 243° Southwest 393 452 40,000  Level Denver Center
Sun 03:01:00 PM 38.7617 -103.2983 243° Southwest 389 448 40,000  Level Denver Center
Sun 03:02:02 PM 38.6981 -103.4525 242° Southwest 391 450 40,000  Level Denver Center
Sun 03:03:04 PM 38.6500 -103.5692 242° Southwest 388 447 40,000  Level Denver Center
Sun 03:04:06 PM 38.5944 -103.7033 242° Southwest 385 443 40,000  Level Denver Center
Sun 03:05:20 PM 38.5464 -103.8178 242° Southwest 382 440 40,000  Level Denver Center
Sun 03:06:22 PM 38.4800 -103.9700 241° Southwest 385 443 40,000  Level Denver Center
Sun 03:07:24 PM 38.4403 -104.0653 242° Southwest 384 442 40,000  Level Denver Center
Sun 03:08:26 PM 38.3783 -104.2142 242° Southwest 384 442 40,000  Level Denver Center
Sun 03:09:28 PM 38.3283 -104.3328 242° Southwest 384 442 40,000  Level Denver Center
Sun 03:10:30 PM 38.2747 -104.4642 243° Southwest 378 435 40,000  Level Denver Center
Sun 03:11:32 PM 38.2300 -104.5783 244° Southwest 378 435 40,000  Level Denver Center
Sun 03:12:34 PM 38.1767 -104.7100 243° Southwest 377 434 40,000  Level Denver Center
Sun 03:13:36 PM 38.1325 -104.8231 244° Southwest 376 433 40,000  Level Denver Center
Sun 03:14:38 PM 38.0811 -104.9522 243° Southwest 372 428 40,000  Level Denver Center
Sun 03:15:40 PM 38.0367 -105.0622 243° Southwest 369 425 40,000  Level Denver Center
Sun 03:16:42 PM 37.9864 -105.1931 244° Southwest 369 425 40,000  Level Denver Center
Sun 03:17:44 PM 37.9425 -105.3044 243° Southwest 370 426 40,000  Level Denver Center
Sun 03:18:46 PM 37.8911 -105.4339 243° Southwest 370 426 40,000  Level Denver Center
Sun 03:19:48 PM 37.8492 -105.5453 245° Southwest 369 425 40,000  Level Denver Center
Sun 03:20:50 PM 37.7969 -105.6756 243° Southwest 373 429 40,000  Level Denver Center
Sun 03:21:52 PM 37.7508 -105.7872 242° Southwest 374 430 40,000  Level Denver Center
Sun 03:22:54 PM 37.6944 -105.9158 241° Southwest 375 432 40,000  Level Denver Center
Sun 03:23:56 PM 37.6478 -106.0267 242° Southwest 372 428 40,000  Level Denver Center
Sun 03:24:58 PM 37.5917 -106.1525 241° Southwest 370 426 40,000  Level Denver Center
Sun 03:26:00 PM 37.5444 -106.2642 242° Southwest 367 422 40,000  Level Denver Center
Sun 03:27:02 PM 37.4969 -106.3719 241° Southwest 368 423 40,000  Level Denver Center
Sun 03:28:04 PM 37.4439 -106.4994 242° Southwest 369 425 40,000  Level Denver Center
Sun 03:29:06 PM 37.3981 -106.6053 241° Southwest 360 414 40,000  Level Denver Center
Sun 03:30:08 PM 37.3433 -106.7297 241° Southwest 365 420 40,000  Level Denver Center
Sun 03:31:10 PM 37.2944 -106.8372 240° Southwest 370 426 40,000  Level Denver Center
Sun 03:32:12 PM 37.2386 -106.9633 241° Southwest 370 426 40,000  Level Denver Center
Sun 03:33:14 PM 37.1917 -107.0731 242° Southwest 372 428 40,000  Level Denver Center
Sun 03:34:16 PM 37.1367 -107.2008 242° Southwest 371 427 40,000  Level Denver Center
Sun 03:35:18 PM 37.0889 -107.3100 241° Southwest 372 428 40,000  Level Denver Center
Sun 03:36:20 PM 37.0406 -107.4192 241° Southwest 374 430 40,000  Level Denver Center
Sun 03:37:22 PM 36.9844 -107.5467 241° Southwest 373 429 40,000  Level Denver Center
Sun 03:38:24 PM 36.9367 -107.6564 241° Southwest 374 430 40,000  Level Denver Center
Sun 03:39:26 PM 36.8797 -107.7833 241° Southwest 376 433 40,000  Level Denver Center
Sun 03:40:28 PM 36.8319 -107.8928 241° Southwest 373 429 40,000  Level Denver Center
Sun 03:41:30 PM 36.7764 -108.0200 241° Southwest 374 430 40,000  Level Denver Center
Sun 03:42:32 PM 36.7306 -108.1281 242° Southwest 369 425 40,000  Level Denver Center
Sun 03:43:33 PM 36.6800 -108.2553 244° Southwest 368 423 40,000  Level Denver Center
Sun 03:44:35 PM 36.6336 -108.3647 242° Southwest 372 428 40,000  Level Denver Center
Sun 03:45:37 PM 36.5800 -108.4922 242° Southwest 374 430 40,000  Level Denver Center
Sun 03:46:39 PM 36.5336 -108.6033 243° Southwest 377 434 40,000  Level Denver Center
Sun 03:47:41 PM 36.4794 -108.7322 242° Southwest 377 434 40,000  Level Denver Center
Sun 03:48:43 PM 36.4328 -108.8414 242° Southwest 377 434 40,000  Level Denver Center
Sun 03:49:45 PM 36.3778 -108.9667 241° Southwest 374 430 40,000  Level Denver Center
Sun 03:51:49 PM 36.2761 -109.1964 241° Southwest 370 426 40,000  Level Denver Center
Sun 03:52:51 PM 36.2364 -109.2847 241° Southwest 371 427 40,000  Level Denver Center
Sun 03:53:53 PM 36.1725 -109.4256 241° Southwest 368 423 40,000  Level Denver Center
Sun 03:54:55 PM 36.1231 -109.5294 240° Southwest 368 423 40,000  Level Denver Center
Sun 03:55:57 PM 36.0653 -109.6531 240° Southwest 370 426 40,000  Level Denver Center
Sun 03:56:59 PM 36.0181 -109.7592 241° Southwest 370 426 40,000  Level Denver Center
Sun 03:58:00 PM 35.9781 -109.8489 241° Southwest 371 427 40,000  Level Denver Center
Sun 03:59:03 PM 35.9139 -109.9911 241° Southwest 373 429 40,000  Level Denver Center
Sun 04:00:05 PM 35.8678 -110.0983 242° Southwest 371 427 40,000  Level Denver Center
Sun 04:00:23 PM 35.8483 -110.1319 234° Southwest 370 426 40,000  Level Albuquerque Center
Sun 04:01:25 PM 35.7919 -110.2553 241° Southwest 369 425 40,000  Level Albuquerque Center
Sun 04:02:27 PM 35.7436 -110.3603 240° Southwest 367 422 40,000  Level Albuquerque Center
Sun 04:03:29 PM 35.6853 -110.4833 240° Southwest 371 427 40,000  Level Albuquerque Center
Sun 04:04:31 PM 35.6364 -110.5875 240° Southwest 369 425 40,000  Level Albuquerque Center
Sun 04:05:33 PM 35.5775 -110.7094 239° Southwest 370 426 40,000  Level Albuquerque Center
Sun 04:06:35 PM 35.5317 -110.8153 242° Southwest 369 425 40,000  Level Albuquerque Center
Sun 04:07:37 PM 35.4767 -110.9392 241° Southwest 370 426 40,000  Level Albuquerque Center
Sun 04:08:39 PM 35.4292 -111.0481 242° Southwest 374 430 40,000  Level Albuquerque Center
Sun 04:09:41 PM 35.3733 -111.1728 241° Southwest 374 430 40,000  Level Albuquerque Center
Sun 04:10:43 PM 35.3283 -111.2819 243° Southwest 374 430 40,000  Level Albuquerque Center
Sun 04:11:45 PM 35.2831 -111.3967 244° Southwest 381 438 40,000  Level Albuquerque Center
Sun 04:12:47 PM 35.2344 -111.5047 241° Southwest 371 427 40,000  Level Albuquerque Center
Sun 04:13:49 PM 35.1814 -111.6119 239° Southwest 369 425 40,000  Level Albuquerque Center
Sun 04:14:51 PM 35.1292 -111.7467 245° Southwest 371 427 40,000  Level Albuquerque Center
Sun 04:15:53 PM 35.0939 -111.8700 251° West 367 422 40,000  Level Albuquerque Center
Sun 04:16:55 PM 35.0614 -111.9861 251° West 365 420 40,000  Level Albuquerque Center
Sun 04:17:57 PM 35.0267 -112.1028 250° West 365 420 40,000  Level Albuquerque Center
Sun 04:18:59 PM 34.9908 -112.2189 249° West 367 422 40,000  Level Albuquerque Center
Sun 04:20:01 PM 34.9531 -112.3367 249° West 370 426 40,000  Level Albuquerque Center
Sun 04:21:03 PM 34.9169 -112.4539 249° West 371 427 40,000  Level Albuquerque Center
Sun 04:22:04 PM 34.8744 -112.5939 250° West 369 425 40,000  Level Albuquerque Center
Sun 04:23:06 PM 34.8392 -112.7117 250° West 369 425 40,000  Level Albuquerque Center
Sun 04:24:08 PM 34.8053 -112.8294 251° West 369 425 40,000 -97 Level Albuquerque Center
Sun 04:25:10 PM 34.7714 -112.9483 251° West 371 427 39,800 -774 Descending Albuquerque Center
Sun 04:26:12 PM 34.7381 -113.0661 251° West 371 427 38,400 -1,452 Descending Albuquerque Center
Sun 04:27:14 PM 34.7064 -113.1781 251° West 358 412 36,800 -1,161 Descending Albuquerque Center
Sun 04:28:16 PM 34.6739 -113.2867 250° West 347 399 36,000 -387 Descending Albuquerque Center
Sun 04:29:18 PM 34.6319 -113.4239 250° West 358 412 36,000 -435 Level Albuquerque Center
Sun 04:30:20 PM 34.5978 -113.5400 250° West 364 419 35,100 -1,073 Descending Albuquerque Center
Sun 04:31:21 PM 34.5675 -113.6469 251° West 365 420 33,800 -1,415 Descending Albuquerque Center
Sun 04:32:23 PM 34.5428 -113.7836 258° West 351 404 32,200 -1,452 Descending Albuquerque Center
Sun 04:33:25 PM 34.5167 -113.9031 255° West 361 415 30,800 -1,065 Descending Albuquerque Center
Sun 04:34:27 PM 34.4914 -114.0258 256° West 370 426 30,000 -532 Descending Albuquerque Center
Sun 04:35:29 PM 34.4667 -114.1469 256° West 371 427 29,700 -1,113 Descending Albuquerque Center
Sun 04:36:31 PM 34.4378 -114.2700 254° West 376 433 27,700 -2,000 Descending Albuquerque Center
Sun 04:37:38 PM 34.3894 -114.4142 248° West 385 443 25,400 -1,721 Descending Los Angeles Center
Sun 04:38:40 PM 34.3469 -114.5350 247° West 389 448 24,000 -677 Descending Los Angeles Center
Sun 04:39:42 PM 34.3056 -114.6522 247° West 382 440 24,000  Level Los Angeles Center
Sun 04:40:44 PM 34.2619 -114.7694 246° West 383 441 24,000 -240 Level Los Angeles Center
Sun 04:41:47 PM 34.2200 -114.8875 247° West 384 442 23,500 -1,296 Descending Los Angeles Center
Sun 04:42:49 PM 34.1714 -115.0264 247° West 375 432 21,300 -2,064 Descending Los Angeles Center
Sun 04:43:52 PM 34.1325 -115.1400 248° West 369 425 19,200 -2,032 Descending Los Angeles Center
Sun 04:44:53 PM 34.0942 -115.2511 247° West 362 417 17,100 -2,000 Descending Los Angeles Center
Sun 04:45:55 PM 34.0608 -115.3611 250° West 355 409 15,100 -1,984 Descending Los Angeles Center
Sun 04:46:57 PM 34.0306 -115.4683 251° West 344 396 13,000 -1,935 Descending Los Angeles Center
Sun 04:47:59 PM 34.0014 -115.5714 251° West 332 382 11,100 -968 Descending Los Angeles Center
Sun 04:49:01 PM 33.9681 -115.6742 249° West 330 380 11,000 -48 Descending Los Angeles Center
Sun 04:50:03 PM 33.9375 -115.7769 250° West 329 379 11,000  Level Los Angeles Center
Sun 04:51:05 PM 33.9019 -115.9039 251° West 331 381 11,000  Level Los Angeles Center
Sun 04:52:08 PM 33.8875 -116.0144 261° West 334 384 11,000  Level Los Angeles Center
Sun 04:53:10 PM 33.8842 -116.1278 268° West 339 390 11,000 -823 Level Los Angeles Center
Sun 04:54:12 PM 33.8397 -116.2281 242° Southwest 299 344 9,300 -1,887 Descending Los Angeles Center
Sun 04:55:14 PM 33.8017 -116.2953 236° Southwest 269 310 7,100 -1,452 Descending Los Angeles Center
Sun 04:56:16 PM 33.7692 -116.3511 235° Southwest 234 269 6,300 -532 Descending Los Angeles Center
Sun 04:57:18 PM 33.7506 -116.4006 246° West 220 253 6,000 -1,860 Descending Los Angeles Center
Sun 04:59:07 PM 33.8000 -116.4833 306° West 146 168 1,000 -2,752 Descending Southern California TRACON
Sun 05:01:00 PM 33.8167 -116.5000 253° West  Level FlightAware Approximate
Sun 05:08:00 PM 33.8297 -116.5067 253° West  Level Estimated
Sun 05:09:00 PM 33.8297 -116.5067 253° West  Level Estimated

Login

Don't have an account? Register now (free) for customized features, flight alerts, and more!